Bethany, Louisiana
Current Conditions -  °F | °C
As of 9:56 PM on Wednesday 17 Dec 2014 (Local Time) from KSHV Reporting Station
Light Rain Light Rain  
Wind Chill: 45°   Ceiling: 3500
Heat Index: 47°   Visibility: 10mi
Dew Point: 40°   Wind: 5mph
Humidity: 77%   Direction: 70°ENE
Pressure: 30.18"   Gusts: NA
Location:  32.37°N, 94.04°W
Report Text: KSHV 180356Z 07004KT 10SM -RA OVC035 08/04 A3018 RMK AO2 RAB30 SLP219 P0000 T00830044
Loading
Personal Weather Stations






























Interactive Weather Map New forecast layout! Learn more

10-Day Weather Forecast

Advertisements
Track Severe Weather on mobile